Time;durP1;ratioP1;P1;durP2;ratioP2;P2;SDS_P1;SDS_P2;PMS_P1;PMS_P2;Temp;Humidity;BMP_temperature;BMP_pressure;BME280_temperature;BME280_humidity;BME280_pressure;Samples;Min_cycle;Max_cycle;Signal;HPM_P1;HPM_P2
2022/08/09 00:01:26;;;;;;;4.43;1.80;;;18.90;99.90;;;;;;5079629;28;20036;-59
2022/08/09 00:03:52;;;;;;;2.35;1.70;;;18.80;99.90;;;;;;5079594;28;20358;-59
2022/08/09 00:06:18;;;;;;;2.95;1.63;;;18.90;99.90;;;;;;5078919;28;20116;-58
2022/08/09 00:08:47;;;;;;;4.35;1.80;;;18.80;99.90;;;;;;5079939;28;20392;-59
2022/08/09 00:11:17;;;;;;;3.38;1.75;;;18.80;99.90;;;;;;5079104;28;20035;-59
2022/08/09 00:13:44;;;;;;;6.07;1.90;;;18.90;99.90;;;;;;5079938;28;20029;-59
2022/08/09 00:16:10;;;;;;;2.85;1.83;;;18.80;99.90;;;;;;5079355;28;20304;-59
2022/08/09 00:18:36;;;;;;;3.03;2.10;;;18.80;99.90;;;;;;5079402;28;20036;-58
2022/08/09 00:21:06;;;;;;;5.60;2.00;;;18.80;99.90;;;;;;5079396;28;20051;-59
2022/08/09 00:23:32;;;;;;;5.72;2.13;;;18.70;99.90;;;;;;5079734;28;20412;-59
2022/08/09 00:25:58;;;;;;;3.70;2.08;;;18.60;99.90;;;;;;5079092;28;20439;-59
2022/08/09 00:28:24;;;;;;;5.15;1.95;;;18.50;99.90;;;;;;5079741;28;20028;-59
2022/08/09 00:30:50;;;;;;;3.55;2.00;;;18.40;99.90;;;;;;5079278;28;20424;-59
2022/08/09 00:33:16;;;;;;;3.05;1.90;;;18.30;99.90;;;;;;5078277;28;20042;-59
2022/08/09 00:35:42;;;;;;;4.65;2.28;;;18.40;99.90;;;;;;5079079;28;20371;-63
2022/08/09 00:38:11;;;;;;;6.40;2.28;;;18.40;99.90;;;;;;5079162;28;20102;-59
2022/08/09 00:40:38;;;;;;;4.03;2.40;;;18.50;99.90;;;;;;5079451;28;20028;-59
2022/08/09 00:43:04;;;;;;;5.22;2.22;;;18.50;99.90;;;;;;5078436;28;20266;-60
2022/08/09 00:45:30;;;;;;;4.65;2.40;;;18.50;99.90;;;;;;5078845;28;20465;-60
2022/08/09 00:47:55;;;;;;;4.72;2.55;;;18.50;99.90;;;;;;5061493;28;20045;-59
2022/08/09 00:50:22;;;;;;;3.50;2.20;;;18.40;99.90;;;;;;5077931;28;20043;-59
2022/08/09 00:52:48;;;;;;;5.22;2.58;;;18.40;99.90;;;;;;5078275;28;20063;-59
2022/08/09 00:55:14;;;;;;;4.85;2.70;;;18.40;99.90;;;;;;5079040;28;20032;-60
2022/08/09 00:57:40;;;;;;;3.70;2.42;;;18.40;99.90;;;;;;5077669;28;20044;-60
2022/08/09 01:00:08;;;;;;;5.78;2.40;;;18.50;99.90;;;;;;5061132;28;20032;-60
2022/08/09 01:02:41;;;;;;;2.75;2.22;;;18.40;99.90;;;;;;5078465;28;20040;-59
2022/08/09 01:05:15;;;;;;;5.78;2.80;;;18.40;99.90;;;;;;5078565;28;20029;-58
2022/08/09 01:07:53;;;;;;;3.05;2.58;;;18.20;99.90;;;;;;5078787;28;20319;-60
2022/08/09 01:10:40;;;;;;;4.60;2.78;;;18.10;99.90;;;;;;5077727;28;20471;-59
2022/08/09 01:13:18;;;;;;;3.20;2.30;;;18.10;99.90;;;;;;5078325;28;20029;-58
2022/08/09 01:15:45;;;;;;;5.57;2.88;;;18.20;99.90;;;;;;5077827;28;20025;-59
2022/08/09 01:18:19;;;;;;;4.53;3.00;;;18.20;99.90;;;;;;5078592;28;20395;-59
2022/08/09 01:21:16;;;;;;;4.10;2.90;;;18.20;99.90;;;;;;5077457;28;20028;-58
2022/08/09 01:24:01;;;;;;;4.20;3.13;;;18.20;99.90;;;;;;5078650;28;20040;-59
2022/08/09 01:26:38;;;;;;;3.50;3.10;;;18.10;99.90;;;;;;5078078;28;20037;-59
2022/08/09 01:29:08;;;;;;;3.55;3.22;;;18.10;99.90;;;;;;5078318;28;20029;-58
2022/08/09 01:31:36;;;;;;;3.97;2.95;;;18.10;99.90;;;;;;5077877;28;20043;-60
2022/08/09 01:34:04;;;;;;;3.72;3.08;;;18.10;99.90;;;;;;5078305;28;20036;-58
2022/08/09 01:36:32;;;;;;;6.45;3.30;;;18.10;99.90;;;;;;5077845;28;20024;-58
2022/08/09 01:39:00;;;;;;;5.28;2.92;;;18.00;99.90;;;;;;5077913;28;20354;-59
2022/08/09 01:41:31;;;;;;;3.53;3.22;;;17.90;99.90;;;;;;5078136;28;20037;-59
2022/08/09 01:44:02;;;;;;;3.70;3.40;;;17.80;99.90;;;;;;5077675;28;20037;-59
2022/08/09 01:46:32;;;;;;;3.70;3.25;;;17.90;99.90;;;;;;5077593;28;20089;-60
2022/08/09 01:49:02;;;;;;;4.85;3.25;;;17.80;99.90;;;;;;5077577;28;20281;-59
2022/08/09 01:51:30;;;;;;;4.47;3.13;;;17.90;99.90;;;;;;5077928;28;20388;-59
2022/08/09 01:53:58;;;;;;;4.97;3.38;;;18.00;99.90;;;;;;5076841;28;20032;-59
2022/08/09 01:56:26;;;;;;;4.03;3.30;;;17.90;99.90;;;;;;5077549;28;20115;-59
2022/08/09 01:58:54;;;;;;;4.43;3.47;;;17.90;99.90;;;;;;5077425;28;20048;-59
2022/08/09 02:01:21;;;;;;;4.80;3.70;;;17.70;99.90;;;;;;5077568;28;20092;-59
2022/08/09 02:03:49;;;;;;;5.47;3.53;;;17.70;99.90;;;;;;5076974;28;20331;-59
2022/08/09 02:07:07;;;;;;;6.90;3.60;;;17.70;99.90;;;;;;5077359;28;20028;-59
2022/08/09 02:09:04;;;;;;;4.25;3.40;;;17.70;99.90;;;;;;5077094;28;20028;-59
2022/08/09 02:11:30;;;;;;;5.18;4.00;;;17.70;99.90;;;;;;5077274;28;20044;-59
2022/08/09 02:13:56;;;;;;;6.57;3.58;;;17.70;99.90;;;;;;5076744;28;20032;-59
2022/08/09 02:16:23;;;;;;;6.65;3.60;;;17.70;99.90;;;;;;5077079;28;20044;-59
2022/08/09 02:18:50;;;;;;;5.35;3.92;;;17.70;99.90;;;;;;5077431;28;20278;-59
2022/08/09 02:21:20;;;;;;;4.22;3.83;;;17.70;99.90;;;;;;5076986;28;20040;-59
2022/08/09 02:23:51;;;;;;;6.13;3.70;;;17.60;99.90;;;;;;5076852;28;20029;-59
2022/08/09 02:26:19;;;;;;;4.85;3.60;;;17.60;99.90;;;;;;5077098;28;20272;-59
2022/08/09 02:28:52;;;;;;;6.75;3.97;;;17.70;99.90;;;;;;5076975;28;20032;-59
2022/08/09 02:31:24;;;;;;;4.57;3.90;;;17.70;99.90;;;;;;5077392;28;20020;-59
2022/08/09 02:33:54;;;;;;;5.93;3.85;;;17.70;99.90;;;;;;5076969;28;20087;-59
2022/08/09 02:36:41;;;;;;;6.32;3.72;;;17.70;99.90;;;;;;5077111;28;20029;-60
2022/08/09 02:39:12;;;;;;;5.32;3.83;;;17.70;99.90;;;;;;5076160;28;20304;-60
2022/08/09 02:41:44;;;;;;;5.65;3.75;;;17.60;99.90;;;;;;5076776;28;20044;-60
2022/08/09 02:44:24;;;;;;;4.47;3.85;;;17.60;99.90;;;;;;5076935;28;20111;-58
2022/08/09 02:46:53;;;;;;;4.05;3.65;;;17.50;99.90;;;;;;5076740;28;20092;-58
2022/08/09 02:49:19;;;;;;;6.13;3.83;;;17.40;99.90;;;;;;5076737;28;20047;-60
2022/08/09 02:51:56;;;;;;;5.35;4.05;;;17.40;99.90;;;;;;5076581;28;20039;-59
2022/08/09 02:54:24;;;;;;;6.32;4.30;;;17.30;99.90;;;;;;5076009;28;20033;-60
2022/08/09 02:56:52;;;;;;;5.63;4.05;;;17.40;99.90;;;;;;5076479;28;20025;-59
2022/08/09 02:59:20;;;;;;;6.63;4.40;;;17.40;99.90;;;;;;5076668;28;20071;-59
2022/08/09 03:01:47;;;;;;;6.07;4.20;;;17.40;99.90;;;;;;5076541;28;20036;-60
2022/08/09 03:04:13;;;;;;;5.10;4.50;;;17.50;99.90;;;;;;5076349;28;20048;-59
2022/08/09 03:06:41;;;;;;;7.68;4.65;;;17.40;99.90;;;;;;5082255;28;20115;-60
2022/08/09 03:09:08;;;;;;;7.18;4.50;;;17.30;99.90;;;;;;5082687;28;20047;-59
2022/08/09 03:11:36;;;;;;;6.05;5.07;;;17.40;99.90;;;;;;5082908;28;20063;-60
2022/08/09 03:14:04;;;;;;;5.03;4.53;;;17.30;99.90;;;;;;5082474;28;20046;-58
2022/08/09 03:16:32;;;;;;;4.85;4.25;;;17.30;99.90;;;;;;5083113;28;20016;-58
2022/08/09 03:18:58;;;;;;;7.30;4.65;;;17.40;99.90;;;;;;5083097;28;20394;-58
2022/08/09 03:21:26;;;;;;;5.15;4.65;;;17.30;99.90;;;;;;5083109;28;20118;-58
2022/08/09 03:23:51;;;;;;;7.40;4.93;;;17.30;99.90;;;;;;5082261;28;20043;-58
2022/08/09 03:26:19;;;;;;;5.00;4.60;;;17.30;99.90;;;;;;5083047;28;20327;-58
2022/08/09 03:28:47;;;;;;;8.10;5.45;;;17.20;99.90;;;;;;5082909;28;20032;-59
2022/08/09 03:31:16;;;;;;;6.40;5.47;;;17.10;99.90;;;;;;5083592;28;20064;-59
2022/08/09 03:33:43;;;;;;;7.53;5.30;;;17.20;99.90;;;;;;5082927;28;20044;-59
2022/08/09 03:36:09;;;;;;;5.70;5.10;;;17.10;99.90;;;;;;5082265;28;20116;-59
2022/08/09 03:38:37;;;;;;;5.68;5.18;;;17.20;99.90;;;;;;5083007;28;20126;-59
2022/08/09 03:41:03;;;;;;;6.97;5.20;;;17.10;99.90;;;;;;5083454;28;20036;-59
2022/08/09 03:43:28;;;;;;;8.32;5.32;;;17.10;99.90;;;;;;5082688;28;20056;-59
2022/08/09 03:45:54;;;;;;;6.22;5.43;;;16.90;99.90;;;;;;5082843;28;20056;-59
2022/08/09 03:48:22;;;;;;;8.85;5.63;;;17.00;99.90;;;;;;5082642;28;20028;-59
2022/08/09 03:50:50;;;;;;;7.88;5.65;;;16.90;99.90;;;;;;5082841;28;20108;-59
2022/08/09 03:53:17;;;;;;;7.32;5.68;;;17.00;99.90;;;;;;5082744;28;20036;-59
2022/08/09 03:55:43;;;;;;;7.15;5.78;;;17.00;99.90;;;;;;5083254;28;20032;-59
2022/08/09 03:58:09;;;;;;;6.95;5.72;;;17.00;99.90;;;;;;5082465;28;20051;-59
2022/08/09 04:00:36;;;;;;;7.70;5.90;;;17.00;99.90;;;;;;5083274;28;20048;-59
2022/08/09 04:03:02;;;;;;;6.60;6.00;;;16.90;99.90;;;;;;5082634;28;20090;-59
2022/08/09 04:05:28;;;;;;;7.20;5.65;;;17.00;99.90;;;;;;5082773;28;20427;-59
2022/08/09 04:07:55;;;;;;;6.82;5.70;;;16.80;99.90;;;;;;5082760;28;20337;-60
2022/08/09 04:10:22;;;;;;;6.80;5.63;;;16.80;99.90;;;;;;5082753;28;20028;-58
2022/08/09 04:12:51;;;;;;;8.27;5.63;;;16.80;99.90;;;;;;5082960;28;20314;-59
2022/08/09 04:15:20;;;;;;;7.68;5.90;;;16.80;99.90;;;;;;5082582;28;20093;-60
2022/08/09 04:17:47;;;;;;;8.80;6.10;;;16.80;99.90;;;;;;5078930;28;20021;-57
2022/08/09 04:20:14;;;;;;;8.27;5.88;;;16.80;99.90;;;;;;5079076;28;20293;-58
2022/08/09 04:22:40;;;;;;;6.53;5.82;;;16.90;99.90;;;;;;5079092;28;20036;-60
2022/08/09 04:25:07;;;;;;;6.95;5.22;;;16.80;99.90;;;;;;5079192;28;20288;-59
2022/08/09 04:27:34;;;;;;;9.02;6.03;;;16.80;99.90;;;;;;5078517;28;20443;-59
2022/08/09 04:30:00;;;;;;;7.25;5.50;;;16.70;99.90;;;;;;5079021;28;20036;-59
2022/08/09 04:32:27;;;;;;;11.10;6.32;;;16.70;99.90;;;;;;5078357;28;20020;-59
2022/08/09 04:34:53;;;;;;;6.70;5.95;;;16.80;99.90;;;;;;5079054;28;20104;-59
2022/08/09 04:37:19;;;;;;;6.93;6.20;;;16.80;99.90;;;;;;5079323;28;20033;-59
2022/08/09 04:39:45;;;;;;;9.43;6.40;;;16.80;99.90;;;;;;5078524;28;20032;-60
2022/08/09 04:42:11;;;;;;;8.07;6.60;;;16.80;99.90;;;;;;5079123;28;20021;-58
2022/08/09 04:44:37;;;;;;;8.20;6.40;;;16.80;99.90;;;;;;5079143;28;20299;-59
2022/08/09 04:47:03;;;;;;;7.30;6.07;;;16.70;99.90;;;;;;5078424;28;20037;-58
2022/08/09 04:49:35;;;;;;;8.50;6.13;;;16.70;99.90;;;;;;5078705;28;20028;-60
2022/08/09 04:52:04;;;;;;;9.00;6.43;;;16.70;99.90;;;;;;5078771;28;20086;-58
2022/08/09 04:54:31;;;;;;;6.95;6.35;;;16.80;99.90;;;;;;5079069;28;20296;-58
2022/08/09 04:56:57;;;;;;;8.13;6.32;;;16.80;99.90;;;;;;5078628;28;20040;-59
2022/08/09 04:59:22;;;;;;;7.00;6.18;;;16.90;99.90;;;;;;5078799;28;20428;-58
2022/08/09 05:01:48;;;;;;;9.55;6.53;;;16.80;99.90;;;;;;5078613;28;20430;-58
2022/08/09 05:04:14;;;;;;;7.00;6.07;;;16.90;99.90;;;;;;5078119;28;20055;-58
2022/08/09 05:06:40;;;;;;;11.00;6.15;;;16.90;99.90;;;;;;5079050;28;20296;-59
2022/08/09 05:09:06;;;;;;;9.65;6.47;;;17.00;99.90;;;;;;5077795;28;20028;-59
2022/08/09 05:11:32;;;;;;;7.72;6.85;;;17.00;99.90;;;;;;5079137;28;20047;-59
2022/08/09 05:13:58;;;;;;;8.38;6.50;;;17.10;99.90;;;;;;5078413;28;20079;-59
2022/08/09 05:16:24;;;;;;;7.15;6.55;;;17.10;99.90;;;;;;5078305;28;20059;-59
2022/08/09 05:18:49;;;;;;;7.35;6.47;;;17.00;99.90;;;;;;5078235;28;20029;-59
2022/08/09 05:21:16;;;;;;;7.97;6.68;;;17.00;99.90;;;;;;5078315;28;20105;-59
2022/08/09 05:23:42;;;;;;;8.60;6.60;;;17.00;99.90;;;;;;5078071;28;20123;-59
2022/08/09 05:26:07;;;;;;;6.78;5.97;;;17.10;99.90;;;;;;5078147;28;20072;-58
2022/08/09 05:28:33;;;;;;;7.05;6.35;;;17.20;99.90;;;;;;5076958;28;20464;-59
2022/08/09 05:30:59;;;;;;;7.38;6.35;;;17.20;99.90;;;;;;5078087;28;20071;-59
2022/08/09 05:33:25;;;;;;;6.78;6.03;;;17.40;99.90;;;;;;5077926;28;20029;-59
2022/08/09 05:35:51;;;;;;;7.43;6.18;;;17.40;99.90;;;;;;5077984;28;20440;-59
2022/08/09 05:38:17;;;;;;;7.18;6.03;;;17.50;99.90;;;;;;5078029;28;20296;-58
2022/08/09 05:40:42;;;;;;;7.00;6.28;;;17.50;99.90;;;;;;5077132;28;20044;-59
2022/08/09 05:43:08;;;;;;;6.18;5.57;;;17.60;99.90;;;;;;5060212;28;20029;-59
2022/08/09 05:45:34;;;;;;;8.52;5.85;;;17.60;99.90;;;;;;5077984;28;20143;-59
2022/08/09 05:48:00;;;;;;;7.05;6.32;;;17.50;99.90;;;;;;5077003;28;20292;-59
2022/08/09 05:50:26;;;;;;;7.97;5.60;;;17.60;99.90;;;;;;5077674;28;20024;-59
2022/08/09 05:52:52;;;;;;;10.35;5.95;;;17.60;99.90;;;;;;5077710;28;20055;-58
2022/08/09 05:55:18;;;;;;;6.40;5.50;;;17.80;99.90;;;;;;5077536;28;20039;-59
2022/08/09 05:57:43;;;;;;;8.63;6.10;;;17.80;99.90;;;;;;5077704;28;20044;-59
2022/08/09 06:00:10;;;;;;;7.20;5.60;;;17.80;99.90;;;;;;5077562;28;20106;-59
2022/08/09 06:02:39;;;;;;;6.10;5.50;;;17.90;99.90;;;;;;5077704;28;20040;-59
2022/08/09 06:05:06;;;;;;;8.65;5.53;;;17.90;99.90;;;;;;5076620;28;20037;-59
2022/08/09 06:07:33;;;;;;;8.20;5.60;;;18.00;99.90;;;;;;5076602;28;20389;-59
2022/08/09 06:10:00;;;;;;;6.10;5.50;;;18.00;99.90;;;;;;5076827;28;20400;-60
2022/08/09 06:12:26;;;;;;;9.02;5.70;;;18.20;99.90;;;;;;5077831;28;20032;-59
2022/08/09 06:14:52;;;;;;;8.80;5.18;;;18.20;99.90;;;;;;5076533;28;20462;-59
2022/08/09 06:17:17;;;;;;;10.45;5.55;;;18.30;99.90;;;;;;5077169;28;20051;-58
2022/08/09 06:19:43;;;;;;;6.68;5.15;;;18.40;99.90;;;;;;5077254;28;20388;-58
2022/08/09 06:22:09;;;;;;;7.90;5.00;;;18.50;99.90;;;;;;5077206;28;20089;-57
2022/08/09 06:24:35;;;;;;;8.75;5.10;;;18.50;99.90;;;;;;5077240;28;20036;-59
2022/08/09 06:27:00;;;;;;;6.85;4.72;;;18.40;99.90;;;;;;5076416;28;20422;-58
2022/08/09 06:29:29;;;;;;;5.40;4.90;;;18.40;99.90;;;;;;5077271;28;20036;-58
2022/08/09 06:31:55;;;;;;;6.85;5.10;;;18.50;99.90;;;;;;5077094;28;20048;-58
2022/08/09 06:34:21;;;;;;;9.70;5.00;;;18.70;99.90;;;;;;5076279;28;20032;-58
2022/08/09 06:36:47;;;;;;;10.30;4.93;;;18.80;99.90;;;;;;5076992;28;20024;-58
2022/08/09 06:39:13;;;;;;;8.13;4.88;;;18.90;99.90;;;;;;5076765;28;20453;-59
2022/08/09 06:41:39;;;;;;;5.32;4.75;;;18.90;99.90;;;;;;5076754;28;20312;-57
2022/08/09 06:44:09;;;;;;;11.05;5.10;;;19.10;99.90;;;;;;5076053;28;20173;-57
2022/08/09 06:46:36;;;;;;;7.80;5.07;;;19.30;99.90;;;;;;5076952;28;20391;-58
2022/08/09 06:49:02;;;;;;;9.55;5.07;;;19.30;99.90;;;;;;5076780;28;20052;-58
2022/08/09 06:51:28;;;;;;;6.78;5.07;;;19.20;99.90;;;;;;5077435;28;20036;-58
2022/08/09 06:53:54;;;;;;;5.35;4.57;;;19.20;99.90;;;;;;5076936;28;20336;-58
2022/08/09 06:56:20;;;;;;;6.15;4.43;;;19.20;99.90;;;;;;5076846;28;20044;-58
2022/08/09 06:58:46;;;;;;;4.53;3.70;;;19.40;99.90;;;;;;5075758;28;20274;-58
2022/08/09 07:01:12;;;;;;;7.20;4.63;;;19.50;99.90;;;;;;5076728;28;20392;-58
2022/08/09 07:03:38;;;;;;;6.60;4.65;;;19.70;99.90;;;;;;5076555;28;20043;-58
2022/08/09 07:06:04;;;;;;;8.75;4.53;;;19.80;99.90;;;;;;5059036;28;20020;-58
2022/08/09 07:08:31;;;;;;;5.53;4.05;;;19.90;99.90;;;;;;5075581;28;20119;-58
2022/08/09 07:10:57;;;;;;;4.57;4.18;;;20.00;99.90;;;;;;5076673;28;20404;-58
2022/08/09 07:13:23;;;;;;;7.15;4.38;;;20.00;99.90;;;;;;5076592;28;20098;-58
2022/08/09 07:15:48;;;;;;;5.70;3.75;;;20.20;99.90;;;;;;5075818;28;20036;-58
2022/08/09 07:18:14;;;;;;;7.47;4.03;;;20.20;99.90;;;;;;5076644;28;20029;-58
2022/08/09 07:20:40;;;;;;;6.00;3.80;;;20.20;99.90;;;;;;5076374;28;20041;-58
2022/08/09 07:23:06;;;;;;;5.00;4.05;;;20.20;99.90;;;;;;5075590;28;20035;-58
2022/08/09 07:25:32;;;;;;;4.38;3.40;;;20.30;99.90;;;;;;5076477;28;20021;-59
2022/08/09 07:27:57;;;;;;;4.90;3.65;;;20.40;99.90;;;;;;5076695;28;20396;-59
2022/08/09 07:30:23;;;;;;;6.78;4.32;;;20.40;99.90;;;;;;5076276;28;20037;-59
2022/08/09 07:32:49;;;;;;;6.05;3.55;;;20.60;99.90;;;;;;5076037;28;20024;-58
2022/08/09 07:35:15;;;;;;;4.38;3.38;;;20.70;99.90;;;;;;5076248;28;20094;-59
2022/08/09 07:37:42;;;;;;;5.53;4.25;;;20.90;99.90;;;;;;5076274;28;20300;-58
2022/08/09 07:40:09;;;;;;;5.88;3.60;;;21.00;99.90;;;;;;5076306;28;20032;-58
2022/08/09 07:42:47;;;;;;;4.80;3.13;;;21.10;99.90;;;;;;5076238;28;20035;-59
2022/08/09 07:45:13;;;;;;;3.65;2.92;;;21.10;99.90;;;;;;5076324;28;20036;-58
2022/08/09 07:47:38;;;;;;;5.57;2.67;;;21.20;99.90;;;;;;5076591;28;20351;-59
2022/08/09 07:50:05;;;;;;;6.22;3.03;;;21.20;99.90;;;;;;5076252;28;20071;-58
2022/08/09 07:52:31;;;;;;;5.80;3.42;;;21.40;99.90;;;;;;5078060;28;20043;-60
2022/08/09 07:54:56;;;;;;;7.85;2.60;;;21.50;99.90;;;;;;5080173;28;20036;-59
2022/08/09 07:57:22;;;;;;;3.13;2.47;;;21.40;99.90;;;;;;5079769;28;20350;-58
2022/08/09 07:59:48;;;;;;;3.38;2.47;;;21.50;99.90;;;;;;5080141;28;20036;-58
2022/08/09 08:02:13;;;;;;;5.68;2.50;;;21.50;99.90;;;;;;5079859;28;20037;-59
2022/08/09 08:04:40;;;;;;;4.35;2.38;;;21.70;99.90;;;;;;5080257;28;20040;-59
2022/08/09 08:07:06;;;;;;;4.82;2.78;;;21.80;99.90;;;;;;5079830;28;20037;-59
2022/08/09 08:09:32;;;;;;;3.92;2.25;;;21.90;99.90;;;;;;5079802;28;20352;-59
2022/08/09 08:11:57;;;;;;;4.45;2.30;;;21.90;99.90;;;;;;5079117;28;20282;-58
2022/08/09 08:14:23;;;;;;;6.38;2.10;;;22.20;99.90;;;;;;5079673;28;20037;-59
2022/08/09 08:16:49;;;;;;;2.10;1.85;;;22.10;99.90;;;;;;5080222;28;20123;-58
2022/08/09 08:19:15;;;;;;;3.47;1.50;;;22.00;99.90;;;;;;5078821;28;20041;-58
2022/08/09 08:21:40;;;;;;;7.13;1.70;;;21.90;99.90;;;;;;5079544;28;20036;-58
2022/08/09 08:24:06;;;;;;;3.90;1.80;;;22.10;99.90;;;;;;5079364;28;20041;-59
2022/08/09 08:26:32;;;;;;;2.65;1.50;;;22.10;99.90;;;;;;5079666;28;20403;-58
2022/08/09 08:28:58;;;;;;;3.83;1.90;;;22.20;99.90;;;;;;5079456;28;20032;-58
2022/08/09 08:31:24;;;;;;;5.07;1.60;;;22.50;99.90;;;;;;5080029;28;20025;-58
2022/08/09 08:33:49;;;;;;;2.80;1.30;;;22.40;99.90;;;;;;5079290;28;20039;-59
2022/08/09 08:36:15;;;;;;;3.20;1.20;;;22.40;99.90;;;;;;5079205;28;20067;-58
2022/08/09 08:38:41;;;;;;;3.45;1.50;;;22.50;99.90;;;;;;5079190;28;20388;-59
2022/08/09 08:41:07;;;;;;;3.10;1.42;;;22.50;99.90;;;;;;5079887;28;20285;-59
2022/08/09 08:43:33;;;;;;;2.22;1.40;;;22.50;99.90;;;;;;5079248;28;20348;-58
2022/08/09 08:46:09;;;;;;;3.17;1.40;;;22.60;99.90;;;;;;5079111;28;20029;-59
2022/08/09 08:48:35;;;;;;;6.32;1.55;;;22.70;99.90;;;;;;5079037;28;20102;-59
2022/08/09 08:51:01;;;;;;;3.05;1.13;;;22.50;99.90;;;;;;5079046;28;20089;-58
2022/08/09 08:53:28;;;;;;;4.40;1.48;;;22.60;99.90;;;;;;5078153;28;20037;-58
2022/08/09 08:55:54;;;;;;;4.18;1.35;;;22.70;99.90;;;;;;5078500;28;20070;-59
2022/08/09 08:58:21;;;;;;;2.72;1.10;;;22.90;99.90;;;;;;5078695;28;20036;-59
2022/08/09 09:00:47;;;;;;;4.25;1.10;;;23.00;99.90;;;;;;5078861;28;20297;-59
2022/08/09 09:03:14;;;;;;;2.10;1.20;;;23.10;99.90;;;;;;5078421;28;20048;-59
2022/08/09 09:05:40;;;;;;;3.75;1.10;;;23.10;99.90;;;;;;5078793;28;20013;-58
2022/08/09 09:08:08;;;;;;;5.10;1.20;;;23.20;99.90;;;;;;5077822;28;20044;-59
2022/08/09 09:10:34;;;;;;;2.67;1.00;;;23.40;99.90;;;;;;5078470;28;20033;-59
2022/08/09 09:13:02;;;;;;;4.32;1.30;;;23.50;99.90;;;;;;5078686;28;20043;-59
2022/08/09 09:15:27;;;;;;;3.17;1.30;;;23.60;99.90;;;;;;5078669;28;20129;-59
2022/08/09 09:17:53;;;;;;;4.35;1.00;;;23.70;99.90;;;;;;5077907;28;20064;-59
2022/08/09 09:20:19;;;;;;;2.38;1.10;;;23.70;99.90;;;;;;5078533;28;20048;-59
2022/08/09 09:22:59;;;;;;;5.03;1.20;;;23.70;99.90;;;;;;5077553;28;20063;-59
2022/08/09 09:25:41;;;;;;;6.50;1.20;;;23.70;99.90;;;;;;5078399;28;20110;-59
2022/08/09 09:28:10;;;;;;;2.50;1.10;;;23.70;99.90;;;;;;5078623;28;20285;-58
2022/08/09 09:30:56;;;;;;;3.45;0.90;;;23.80;99.90;;;;;;5077424;28;20029;-59
2022/08/09 09:33:34;;;;;;;7.20;1.25;;;23.80;99.90;;;;;;5078272;28;20033;-60
2022/08/09 09:36:04;;;;;;;4.80;1.02;;;23.80;99.90;;;;;;5077366;28;20029;-59
2022/08/09 09:38:48;;;;;;;1.77;1.10;;;24.00;99.90;;;;;;5077302;28;20113;-59
2022/08/09 09:41:25;;;;;;;3.28;1.08;;;24.10;99.90;;;;;;5078003;28;20024;-59
2022/08/09 09:43:52;;;;;;;1.83;0.90;;;24.00;99.90;;;;;;5077937;28;20113;-59
2022/08/09 09:46:18;;;;;;;1.95;1.00;;;24.10;99.90;;;;;;5078315;28;20051;-59
2022/08/09 09:48:58;;;;;;;1.20;1.00;;;24.30;99.90;;;;;;5077880;28;20473;-59
2022/08/09 09:51:28;;;;;;;1.92;1.00;;;24.40;99.90;;;;;;5077851;28;20277;-60
2022/08/09 09:54:08;;;;;;;3.35;1.35;;;24.50;99.90;;;;;;5077996;28;20301;-59
2022/08/09 09:56:36;;;;;;;1.95;0.90;;;24.60;99.90;;;;;;5078028;28;20024;-59
2022/08/09 09:59:02;;;;;;;2.53;0.98;;;24.70;99.90;;;;;;5076837;28;20185;-59
2022/08/09 10:01:28;;;;;;;4.78;1.25;;;24.90;99.90;;;;;;5077723;28;20391;-59
2022/08/09 10:03:56;;;;;;;5.93;1.48;;;25.10;99.90;;;;;;5077762;28;20041;-60
2022/08/09 10:06:22;;;;;;;2.97;1.10;;;25.10;99.90;;;;;;5078182;28;20224;-59
2022/08/09 10:08:49;;;;;;;3.00;1.15;;;25.00;99.90;;;;;;5077523;28;20300;-59
2022/08/09 10:11:24;;;;;;;4.70;0.90;;;25.00;99.90;;;;;;5076795;28;20024;-59
2022/08/09 10:13:52;;;;;;;2.40;1.05;;;25.20;99.90;;;;;;5077184;28;20407;-59
2022/08/09 10:16:26;;;;;;;4.32;1.35;;;25.30;99.90;;;;;;5076840;28;20036;-60
2022/08/09 10:18:53;;;;;;;1.98;0.88;;;25.30;99.90;;;;;;5077357;28;20026;-59
2022/08/09 10:21:20;;;;;;;2.40;1.10;;;25.00;99.90;;;;;;5077869;28;20046;-59
2022/08/09 10:23:47;;;;;;;9.68;1.55;;;24.90;99.90;;;;;;5077203;28;20056;-58
2022/08/09 10:26:13;;;;;;;3.63;1.25;;;24.90;99.90;;;;;;5077130;28;20020;-59
2022/08/09 10:28:40;;;;;;;4.00;1.30;;;25.10;99.90;;;;;;5043310;28;20119;-59
2022/08/09 10:31:07;;;;;;;3.53;1.42;;;25.20;99.90;;;;;;5077275;28;20032;-59
2022/08/09 10:33:34;;;;;;;4.07;1.50;;;25.30;99.90;;;;;;5077132;28;20089;-59
2022/08/09 10:36:01;;;;;;;3.45;1.45;;;25.50;99.90;;;;;;5076526;28;20036;-59
2022/08/09 10:38:28;;;;;;;5.13;1.45;;;25.50;99.90;;;;;;5077121;28;20036;-59
2022/08/09 10:40:54;;;;;;;3.25;1.45;;;25.70;99.90;;;;;;5077133;28;20043;-58
2022/08/09 10:43:19;;;;;;;6.32;1.27;;;25.60;99.90;;;;;;5077276;28;20024;-58
2022/08/09 10:45:46;;;;;;;2.13;0.95;;;25.80;99.90;;;;;;5077045;28;20032;-58
2022/08/09 10:48:42;;;;;;;4.05;1.40;;;26.00;99.90;;;;;;5077428;28;20048;-59
2022/08/09 10:51:29;;;;;;;1.85;1.00;;;26.10;99.90;;;;;;5076917;28;20039;-59
2022/08/09 10:54:09;;;;;;;3.70;1.25;;;26.30;99.90;;;;;;5076854;28;20265;-59
2022/08/09 10:56:37;;;;;;;2.45;1.27;;;26.60;99.90;;;;;;5076767;28;20029;-59
2022/08/09 10:59:21;;;;;;;2.00;1.13;;;26.60;99.90;;;;;;5076637;28;20044;-58
2022/08/09 11:01:51;;;;;;;3.30;0.90;;;27.20;99.90;;;;;;5076881;28;20107;-59
2022/08/09 11:04:20;;;;;;;4.32;1.30;;;28.20;99.90;;;;;;5076615;28;20035;-60
2022/08/09 11:06:48;;;;;;;2.97;1.08;;;29.30;99.90;;;;;;5076739;28;20024;-59
2022/08/09 11:09:38;;;;;;;2.92;0.82;;;30.20;99.90;;;;;;5076324;28;20036;-58
2022/08/09 11:12:14;;;;;;;3.35;0.80;;;31.60;99.90;;;;;;5076556;28;20093;-59
2022/08/09 11:14:53;;;;;;;2.17;0.95;;;32.10;99.90;;;;;;5076684;28;20115;-59
2022/08/09 11:17:19;;;;;;;1.48;0.80;;;32.90;98.40;;;;;;5075829;28;20393;-58
2022/08/09 11:20:00;;;;;;;4.03;0.90;;;32.50;96.00;;;;;;5075748;28;20080;-59
2022/08/09 11:22:44;;;;;;;3.97;0.80;;;32.40;95.50;;;;;;5075881;28;20025;-58
2022/08/09 11:25:35;;;;;;;1.42;0.70;;;32.40;95.30;;;;;;5075842;28;20097;-59
2022/08/09 11:28:29;;;;;;;2.30;0.65;;;32.60;93.10;;;;;;5081126;28;20040;-59
2022/08/09 11:30:55;;;;;;;2.67;0.70;;;33.60;89.90;;;;;;5080714;28;20043;-59
2022/08/09 11:33:41;;;;;;;5.80;0.80;;;34.50;85.50;;;;;;5080565;28;20029;-59
2022/08/09 11:36:08;;;;;;;1.30;0.50;;;35.10;81.60;;;;;;5081178;28;20036;-58
2022/08/09 11:38:35;;;;;;;1.88;0.60;;;34.10;78.30;;;;;;5079680;28;20118;-59
2022/08/09 11:41:27;;;;;;;4.05;0.90;;;34.30;77.50;;;;;;5080411;28;20071;-59
2022/08/09 11:43:53;;;;;;;5.82;0.68;;;34.10;75.20;;;;;;5080261;28;20111;-59
2022/08/09 11:46:21;;;;;;;1.85;0.50;;;34.70;76.10;;;;;;5080337;28;20323;-59
2022/08/09 11:48:56;;;;;;;3.58;0.80;;;34.00;75.50;;;;;;5079492;28;20028;-59
2022/08/09 11:51:24;;;;;;;2.88;0.60;;;34.40;72.20;;;;;;5080183;28;20074;-59
2022/08/09 11:54:13;;;;;;;0.85;0.50;;;35.00;73.50;;;;;;5080195;28;20051;-59
2022/08/09 11:56:39;;;;;;;2.15;0.73;;;35.10;70.80;;;;;;5080511;28;20032;-60
2022/08/09 11:59:06;;;;;;;2.50;0.70;;;35.00;69.40;;;;;;5062490;28;20392;-60
2022/08/09 12:01:38;;;;;;;1.65;0.30;;;34.80;70.10;;;;;;5080068;28;20047;-60
2022/08/09 12:04:13;;;;;;;;;;;35.30;68.20;;;;;;5080263;28;20033;-60
2022/08/09 12:06:50;;;;;;;3.60;0.38;;;35.70;66.20;;;;;;5079337;28;19909;-59
2022/08/09 12:09:15;;;;;;;3.17;0.57;;;35.70;64.70;;;;;;5079909;28;20058;-60
2022/08/09 12:11:41;;;;;;;1.73;0.40;;;35.70;64.10;;;;;;5079103;28;20036;-59
2022/08/09 12:14:09;;;;;;;1.67;0.50;;;35.20;63.70;;;;;;5079743;28;20086;-60
2022/08/09 12:16:37;;;;;;;1.60;0.50;;;36.10;63.30;;;;;;5079669;28;20094;-60
2022/08/09 12:19:06;;;;;;;1.38;0.40;;;35.90;60.50;;;;;;5079698;28;20035;-60
2022/08/09 12:21:41;;;;;;;15.73;1.23;;;36.30;60.30;;;;;;5079659;28;20388;-60
2022/08/09 12:24:09;;;;;;;2.00;0.60;;;37.90;59.10;;;;;;5079707;28;20102;-60
2022/08/09 12:26:39;;;;;;;2.33;0.65;;;37.70;57.10;;;;;;5079496;28;20108;-60
2022/08/09 12:29:05;;;;;;;2.95;0.50;;;37.30;56.50;;;;;;5079479;28;20028;-60
2022/08/09 12:31:32;;;;;;;1.42;0.60;;;37.40;56.70;;;;;;5079498;28;20078;-59
2022/08/09 12:33:58;;;;;;;2.80;0.50;;;37.70;55.70;;;;;;5079445;28;20036;-60
2022/08/09 12:36:24;;;;;;;1.27;0.60;;;37.40;55.20;;;;;;5078678;28;20025;-60
2022/08/09 12:38:51;;;;;;;2.80;0.65;;;36.60;55.30;;;;;;5078631;28;20047;-61
2022/08/09 12:41:26;;;;;;;2.05;0.50;;;36.60;55.70;;;;;;5079363;28;20179;-60
2022/08/09 12:43:54;;;;;;;1.52;0.50;;;37.60;55.50;;;;;;5079293;28;20032;-61
2022/08/09 12:46:20;;;;;;;2.15;0.52;;;38.80;52.80;;;;;;5079272;28;20039;-60
2022/08/09 12:48:47;;;;;;;0.98;0.50;;;37.40;52.90;;;;;;5079133;28;20033;-60
2022/08/09 12:51:13;;;;;;;2.35;0.80;;;37.80;52.70;;;;;;5078463;28;20024;-60
2022/08/09 12:53:40;;;;;;;1.73;0.40;;;37.90;53.00;;;;;;5079011;28;20038;-60
2022/08/09 12:56:13;;;;;;;2.15;0.60;;;38.00;52.20;;;;;;5079695;28;20039;-60